Albion, Oklahoma
Current Conditions -  °F | °C
As of 10:15 AM on Friday 19 Dec 2014 (Local Time) from KRKR Reporting Station
Overcast Overcast  
Wind Chill: 42°   Ceiling: 600
Heat Index: 42°   Visibility: 7mi
Dew Point: 38°   Wind: 0mph
Humidity: 86%   Direction: NA
Pressure: 30.27"   Gusts: NA
Location:  34.66°N, 95.1°W
Report Text: KRKR 191615Z AUTO 00000KT 7SM OVC006 06/03 A3027 RMK AO2 T00550033
Loading
Personal Weather Stations






























Interactive Weather Map New forecast layout! Learn more

10-Day Weather Forecast

Advertisements
Track Severe Weather on mobile